Time;durP1;ratioP1;P1;durP2;ratioP2;P2;SDS_P1;SDS_P2;PMS_P1;PMS_P2;Temp;Humidity;BMP_temperature;BMP_pressure;BME280_temperature;BME280_humidity;BME280_pressure;Samples;Min_cycle;Max_cycle;Signal;HPM_P1;HPM_P2
2024/02/09 00:00:30;;;;;;;19.42;6.32;;;9.60;99.90;;;9.40;100.00;97877.81;5018789;28;20520;-81
2024/02/09 00:03:00;;;;;;;20.45;6.05;;;9.50;99.90;;;9.41;100.00;97879.38;5036920;28;20051;-81
2024/02/09 00:05:28;;;;;;;19.63;5.95;;;9.50;99.90;;;9.39;100.00;97869.03;5018892;28;20049;-81
2024/02/09 00:07:57;;;;;;;20.30;6.18;;;9.50;99.90;;;9.39;100.00;97866.38;5002560;28;20046;-81
2024/02/09 00:10:25;;;;;;;22.85;6.75;;;9.50;99.90;;;9.40;100.00;97867.16;5052033;28;20124;-81
2024/02/09 00:12:53;;;;;;;19.88;6.40;;;9.50;99.90;;;9.40;100.00;97867.94;5009787;28;20056;-81
2024/02/09 00:15:20;;;;;;;18.48;6.38;;;9.50;99.90;;;9.41;100.00;97866.09;4999423;28;20045;-81
2024/02/09 00:17:49;;;;;;;18.17;5.90;;;9.60;99.90;;;9.40;100.00;97859.19;4999501;28;20050;-81
2024/02/09 00:20:20;;;;;;;16.77;5.53;;;9.50;99.90;;;9.40;100.00;97857.31;5016496;28;20588;-81
2024/02/09 00:22:49;;;;;;;;;;;9.60;99.90;;;9.41;100.00;97855.44;5007087;28;20041;-80
2024/02/09 00:25:16;;;;;;;24.67;5.95;;;9.50;99.90;;;9.41;100.00;97847.47;5018817;28;20407;-81
2024/02/09 00:27:43;;;;;;;25.63;5.97;;;9.50;99.90;;;9.42;100.00;97857.03;5018717;28;20045;-81
2024/02/09 00:30:13;;;;;;;15.77;5.90;;;9.60;99.90;;;9.43;100.00;97840.81;5036429;28;20124;-81
2024/02/09 00:32:41;;;;;;;21.42;6.55;;;9.60;99.90;;;9.41;100.00;97844.81;5018536;28;20061;-81
2024/02/09 00:35:09;;;;;;;19.10;6.25;;;9.50;99.90;;;9.41;100.00;97844.81;5018021;28;20124;-80
2024/02/09 00:37:39;;;;;;;23.13;6.20;;;9.50;99.90;;;9.40;100.00;97838.69;5036787;28;20120;-81
2024/02/09 00:40:09;;;;;;;20.17;6.87;;;9.60;99.90;;;9.42;100.00;97841.06;5036010;28;20544;-81
2024/02/09 00:42:38;;;;;;;20.75;5.65;;;9.60;99.90;;;9.41;100.00;97836.81;5035951;28;20280;-81
2024/02/09 00:45:08;;;;;;;25.00;6.10;;;9.50;99.90;;;9.42;100.00;97833.91;5035929;28;20497;-81
2024/02/09 00:47:36;;;;;;;23.23;6.20;;;9.50;99.90;;;9.42;100.00;97825.94;5036169;28;20109;-80
2024/02/09 00:50:04;;;;;;;22.00;6.43;;;9.50;99.90;;;9.43;100.00;97819.53;5035531;28;20295;-81
2024/02/09 00:52:32;;;;;;;23.33;6.45;;;9.60;99.90;;;9.43;100.00;97827.53;5018314;28;20065;-81
2024/02/09 00:55:01;;;;;;;22.73;5.82;;;9.60;99.90;;;9.44;100.00;97820.34;5018228;28;20128;-81
2024/02/09 00:57:28;;;;;;;22.10;6.63;;;9.60;99.90;;;9.45;100.00;97816.59;5017913;28;20134;-81
2024/02/09 00:59:56;;;;;;;21.65;5.75;;;9.50;99.90;;;9.43;100.00;97813.44;5034959;28;20120;-81
2024/02/09 01:02:25;;;;;;;28.48;6.90;;;9.60;99.90;;;9.44;100.00;97809.69;5035961;28;20045;-81
2024/02/09 01:04:52;;;;;;;22.60;6.70;;;9.60;99.90;;;9.45;100.00;97814.75;5035936;28;20497;-81
2024/02/09 01:07:19;;;;;;;21.40;6.45;;;9.60;99.90;;;9.46;100.00;97799.56;5017970;28;20081;-81
2024/02/09 01:09:47;;;;;;;24.17;6.35;;;9.60;99.90;;;9.45;100.00;97795.31;5017585;28;20045;-81
2024/02/09 02:45:48;;;;;;;15.18;5.35;;;9.60;99.90;;;9.50;100.00;97641.00;4992744;28;20115;-81
2024/02/09 03:04:47;;;;;;;18.35;5.40;;;9.70;99.90;;;9.53;100.00;97611.22;4996037;28;20051;-81
2024/02/09 03:07:16;;;;;;;13.25;5.57;;;9.70;99.90;;;9.49;100.00;97608.28;5024566;28;20069;-81
2024/02/09 03:09:43;;;;;;;14.88;5.18;;;9.60;99.90;;;9.51;100.00;97600.81;5016383;28;20068;-80
2024/02/09 03:12:14;;;;;;;22.35;5.13;;;9.60;99.90;;;9.52;100.00;97602.44;5034801;28;20073;-81
2024/02/09 03:14:42;;;;;;;21.42;6.30;;;9.70;99.90;;;9.52;100.00;97598.97;5034495;28;20124;-81
2024/02/09 03:17:09;;;;;;;19.65;5.25;;;9.70;99.90;;;9.53;100.00;97595.25;5034422;28;20091;-81
2024/02/09 03:19:37;;;;;;;19.50;5.63;;;9.70;99.90;;;9.54;100.00;97591.50;5034091;28;20045;-81
2024/02/09 03:22:05;;;;;;;15.77;4.90;;;9.70;99.90;;;9.54;100.00;97588.84;5000127;28;20037;-81
2024/02/09 03:24:34;;;;;;;16.10;5.38;;;9.70;99.90;;;9.54;100.00;97596.84;5019688;28;20049;-81
2024/02/09 03:27:01;;;;;;;13.80;4.85;;;9.60;99.90;;;9.53;100.00;97596.03;5035987;28;20075;-81
2024/02/09 03:29:30;;;;;;;13.43;5.57;;;9.60;99.90;;;9.53;100.00;97584.59;5019975;28;20072;-81
2024/02/09 03:31:58;;;;;;;18.00;4.45;;;9.60;99.90;;;9.52;100.00;97572.38;5011012;28;20129;-81
2024/02/09 03:34:26;;;;;;;16.40;5.57;;;9.70;99.90;;;9.52;100.00;97575.03;5016936;28;20501;-81
2024/02/09 03:36:54;;;;;;;17.95;5.00;;;9.70;99.90;;;9.52;100.00;97572.38;5018309;28;20046;-81
2024/02/09 03:39:22;;;;;;;19.60;5.32;;;9.70;99.90;;;9.52;100.00;97573.19;5006455;28;20128;-80
2024/02/09 03:41:51;;;;;;;18.08;5.55;;;9.70;99.90;;;9.53;99.93;97577.41;5019261;28;20050;-81
2024/02/09 03:44:20;;;;;;;19.07;5.20;;;9.60;99.90;;;9.50;100.00;97562.00;5037319;28;20049;-81
2024/02/09 03:46:48;;;;;;;17.50;4.55;;;9.70;99.90;;;9.51;100.00;97571.56;5037407;28;20045;-81
2024/02/09 03:49:15;;;;;;;20.98;5.57;;;9.70;99.90;;;9.52;99.75;97567.84;4986913;28;20194;-81
2024/02/09 03:51:42;;;;;;;14.55;4.45;;;9.70;99.90;;;9.53;99.82;97555.34;5019062;28;20068;-81
2024/02/09 03:54:13;;;;;;;18.63;5.38;;;9.70;99.90;;;9.55;99.92;97561.16;5038981;28;20057;-81
2024/02/09 03:56:40;;;;;;;15.87;5.03;;;9.70;99.90;;;9.52;99.70;97557.22;5018203;28;20077;-81
2024/02/09 03:59:11;;;;;;;12.23;3.85;;;9.70;99.90;;;9.54;99.70;97554.25;5019021;28;20296;-81
2024/02/09 04:01:38;;;;;;;13.15;4.50;;;9.70;99.90;;;9.54;99.53;97562.25;5018890;28;20140;-81
2024/02/09 04:04:07;;;;;;;12.32;4.45;;;9.70;99.90;;;9.53;99.79;97560.66;4983834;28;20076;-81
2024/02/09 04:06:35;;;;;;;13.88;4.15;;;9.70;99.90;;;9.55;99.70;97564.63;5017381;28;20056;-80
2024/02/09 04:09:02;;;;;;;16.55;4.57;;;9.70;99.90;;;9.55;99.79;97559.31;5017238;28;20041;-81
2024/02/09 04:11:30;;;;;;;14.65;4.43;;;9.70;99.90;;;9.55;99.80;97561.16;5006200;28;20048;-81
2024/02/09 04:13:57;;;;;;;16.00;4.13;;;9.70;99.90;;;9.54;100.00;97556.94;5036441;28;20053;-81
2024/02/09 04:16:27;;;;;;;15.18;4.20;;;9.70;99.90;;;9.55;100.00;97555.84;5036805;28;20405;-81
2024/02/09 04:18:55;;;;;;;11.98;4.20;;;9.70;99.90;;;9.55;100.00;97559.31;5020312;28;20461;-81
2024/02/09 04:21:22;;;;;;;12.25;3.85;;;9.70;99.90;;;9.54;100.00;97562.25;5018976;28;20042;-81
2024/02/09 04:23:51;;;;;;;12.98;4.18;;;9.70;99.90;;;9.54;100.00;97552.41;5036817;28;20045;-81
2024/02/09 04:26:18;;;;;;;10.65;3.55;;;9.70;99.90;;;9.53;100.00;97548.16;5003175;28;20049;-80
2024/02/09 04:28:46;;;;;;;7.18;3.40;;;9.70;99.90;;;9.53;100.00;97552.69;5018580;28;20042;-81
2024/02/09 04:31:13;;;;;;;9.60;3.25;;;9.70;99.90;;;9.55;100.00;97547.88;5018661;28;20049;-81
2024/02/09 04:33:43;;;;;;;10.07;3.50;;;9.70;99.90;;;9.56;100.00;97544.13;5018375;28;20124;-80
2024/02/09 04:36:11;;;;;;;10.25;3.92;;;9.70;99.90;;;9.55;100.00;97546.00;5036387;28;20107;-80
2024/02/09 04:38:40;;;;;;;11.55;3.45;;;9.70;99.90;;;9.57;100.00;97551.06;5036860;28;20095;-81
2024/02/09 04:41:08;;;;;;;8.38;3.25;;;9.70;99.90;;;9.55;100.00;97534.56;5017658;28;20045;-81
2024/02/09 04:43:36;;;;;;;9.27;3.13;;;9.70;99.90;;;9.53;100.00;97537.50;5001929;28;20076;-81
2024/02/09 04:46:03;;;;;;;7.70;2.80;;;9.70;99.90;;;9.53;100.00;97540.16;5018787;28;20052;-81
2024/02/09 04:48:30;;;;;;;12.23;3.85;;;9.70;99.90;;;9.52;100.00;97535.94;5035796;28;20048;-81
2024/02/09 04:50:59;;;;;;;13.50;3.10;;;9.70;99.90;;;9.55;100.00;97529.25;5035813;28;20068;-81
2024/02/09 04:53:27;;;;;;;6.75;3.08;;;9.70;99.90;;;9.51;100.00;97522.88;5036184;28;20052;-81
2024/02/09 04:55:54;;;;;;;10.32;3.72;;;9.70;99.90;;;9.52;100.00;97527.16;5035972;28;20057;-80
2024/02/09 04:58:22;;;;;;;9.02;2.83;;;9.70;99.90;;;9.50;100.00;97521.31;5017571;28;20049;-81
2024/02/09 05:00:50;;;;;;;8.55;3.03;;;9.70;99.90;;;9.50;99.85;97511.44;5035650;28;20408;-80
2024/02/09 05:03:18;;;;;;;9.48;2.60;;;9.70;99.90;;;9.52;100.00;97519.19;5018576;28;20128;-81
2024/02/09 05:05:46;;;;;;;10.02;3.42;;;9.70;99.90;;;9.52;100.00;97513.84;5036238;28;20037;-81
2024/02/09 05:08:14;;;;;;;9.13;2.65;;;9.70;99.90;;;9.52;100.00;97514.66;5035815;28;20386;-81
2024/02/09 05:10:42;;;;;;;8.88;2.92;;;9.70;99.90;;;9.53;99.89;97512.78;5035724;28;20041;-81
2024/02/09 05:13:10;;;;;;;11.10;2.90;;;9.70;99.90;;;9.51;100.00;97510.38;5017507;28;20064;-81
2024/02/09 05:15:38;;;;;;;7.82;3.10;;;9.70;99.90;;;9.49;100.00;97507.22;5018497;28;20045;-81
2024/02/09 05:18:07;;;;;;;8.80;2.80;;;9.70;99.90;;;9.49;100.00;97511.75;5035790;28;20053;-86
2024/02/09 05:20:34;;;;;;;7.82;2.75;;;9.70;99.90;;;9.51;100.00;97502.38;5016013;28;20045;-85
2024/02/09 05:23:03;;;;;;;7.68;3.00;;;9.70;99.90;;;9.50;100.00;97508.78;4983194;28;20049;-85
2024/02/09 05:25:31;;;;;;;6.50;2.38;;;9.70;99.90;;;9.52;100.00;97508.53;5015863;28;20075;-85
2024/02/09 05:27:59;;;;;;;5.53;2.22;;;9.70;99.90;;;9.56;99.98;97506.88;4999617;28;20049;-85
2024/02/09 05:30:29;;;;;;;9.50;2.75;;;9.70;99.90;;;9.57;99.88;97508.50;5016252;28;20060;-85
2024/02/09 05:32:56;;;;;;;5.15;2.40;;;9.70;99.90;;;9.58;99.80;97506.63;5016478;28;20115;-85
2024/02/09 05:35:24;;;;;;;8.85;2.80;;;9.70;99.90;;;9.56;99.70;97509.53;5015981;28;20044;-85
2024/02/09 05:37:51;;;;;;;5.85;2.60;;;9.70;99.90;;;9.60;99.73;97507.91;5015852;28;20046;-84
2024/02/09 05:40:19;;;;;;;5.65;2.60;;;9.70;99.90;;;9.61;99.58;97506.06;5034308;28;20125;-84
2024/02/09 05:42:48;;;;;;;5.40;2.20;;;9.70;99.90;;;9.62;99.71;97503.13;5034620;28;20042;-84
2024/02/09 05:45:16;;;;;;;6.22;2.17;;;9.70;99.90;;;9.61;99.53;97506.06;4983051;28;20048;-84
2024/02/09 05:47:43;;;;;;;7.40;2.30;;;9.70;99.90;;;9.60;99.12;97504.47;5015800;28;20485;-85
2024/02/09 05:50:12;;;;;;;10.43;2.65;;;9.70;99.90;;;9.60;99.24;97505.25;5016559;28;20117;-84
2024/02/09 05:52:39;;;;;;;6.43;2.30;;;9.70;99.90;;;9.60;99.12;97496.50;5017246;28;20049;-83
2024/02/09 05:55:08;;;;;;;7.53;2.55;;;9.70;99.90;;;9.60;99.05;97505.25;5035001;28;20131;-84
2024/02/09 05:57:37;;;;;;;4.45;1.90;;;9.70;99.90;;;9.58;98.85;97499.44;5033874;28;20072;-85
2024/02/09 06:00:09;;;;;;;8.48;2.17;;;9.80;99.90;;;9.61;98.66;97498.84;5033666;28;20049;-84
2024/02/09 06:02:37;;;;;;;7.65;2.63;;;9.80;99.90;;;9.62;98.66;97495.16;5016742;28;20519;-84
2024/02/09 06:05:06;;;;;;;6.35;2.20;;;9.80;99.90;;;9.62;98.69;97492.50;5000881;28;20428;-84
2024/02/09 06:07:34;;;;;;;5.80;2.25;;;9.80;99.90;;;9.64;98.64;97494.88;5018290;28;20516;-80
2024/02/09 06:10:02;;;;;;;7.05;2.47;;;9.80;99.90;;;9.66;98.35;97490.03;5019137;28;20471;-82
2024/02/09 06:12:32;;;;;;;6.93;2.30;;;9.80;99.90;;;9.67;98.12;97495.09;5037875;28;20120;-80
2024/02/09 06:15:00;;;;;;;5.78;2.03;;;9.80;99.90;;;9.64;97.93;97493.00;5019060;28;20068;-79
2024/02/09 06:17:29;;;;;;;6.85;2.50;;;9.80;99.90;;;9.65;97.77;97486.59;5019734;28;20045;-79
2024/02/09 06:19:57;;;;;;;7.63;2.03;;;9.80;99.90;;;9.63;97.59;97480.78;5019852;28;20152;-80
2024/02/09 06:22:25;;;;;;;10.18;2.45;;;9.80;99.90;;;9.66;97.54;97477.56;5021079;28;20046;-80
2024/02/09 06:24:57;;;;;;;5.63;2.42;;;9.80;99.90;;;9.67;97.56;97476.47;5020330;28;20562;-80
2024/02/09 06:27:25;;;;;;;7.90;2.50;;;9.80;99.90;;;9.67;97.71;97470.38;5020057;28;20142;-80
2024/02/09 06:29:54;;;;;;;6.40;2.03;;;9.80;99.90;;;9.63;97.35;97466.69;5020242;28;20425;-80
2024/02/09 06:32:23;;;;;;;4.75;2.20;;;9.80;99.90;;;9.67;96.88;97479.16;5021435;28;20042;-83
2024/02/09 06:34:53;;;;;;;7.60;2.55;;;9.80;99.90;;;9.67;97.16;97481.00;5017601;28;20064;-84
2024/02/09 06:37:22;;;;;;;5.55;2.30;;;9.80;99.90;;;9.65;96.90;97477.81;5016956;28;20124;-87
2024/02/09 06:39:50;;;;;;;8.43;2.83;;;9.90;99.90;;;9.68;96.90;97480.72;5015087;28;20046;-87
2024/02/09 06:42:21;;;;;;;6.32;2.63;;;9.90;99.90;;;9.66;96.93;97480.22;5032743;28;20121;-88
2024/02/09 06:44:49;;;;;;;;;;;9.80;99.90;;;9.67;97.05;97481.81;5015910;28;20060;-86
2024/02/09 06:47:17;;;;;;;6.38;2.47;;;9.80;99.90;;;9.66;97.37;97474.91;4999135;28;19921;-87
2024/02/09 06:49:47;;;;;;;6.28;2.03;;;9.80;99.90;;;9.67;97.45;97481.81;5015017;28;20037;-87
2024/02/09 06:52:16;;;;;;;7.20;2.30;;;9.80;99.90;;;9.69;97.36;97484.19;5015354;28;20053;-87
2024/02/09 06:54:44;;;;;;;5.47;2.10;;;9.80;99.90;;;9.70;97.04;97477.78;5015640;28;20048;-84
2024/02/09 06:57:14;;;;;;;5.40;1.90;;;9.80;99.90;;;9.69;97.22;97479.66;5016807;28;20099;-85
2024/02/09 06:59:45;;;;;;;5.32;2.20;;;9.80;99.90;;;9.70;97.29;97478.56;5005335;28;20487;-84
2024/02/09 07:02:13;;;;;;;6.30;2.47;;;9.80;99.90;;;9.71;97.03;97474.84;5022649;28;20050;-82
2024/02/09 07:04:41;;;;;;;5.10;1.98;;;9.80;99.90;;;9.70;97.14;97473.25;5006600;28;20045;-81
2024/02/09 07:07:08;;;;;;;8.15;2.25;;;9.90;99.90;;;9.71;97.14;97474.84;5021811;28;20053;-82
2024/02/09 07:09:37;;;;;;;5.78;2.22;;;9.80;99.90;;;9.73;96.99;97478.03;5038244;28;20567;-81
2024/02/09 07:12:06;;;;;;;7.65;2.50;;;9.90;99.90;;;9.72;96.92;97479.09;5012553;28;20040;-81
2024/02/09 07:14:34;;;;;;;4.57;2.10;;;9.90;99.90;;;9.74;96.53;97479.59;5021336;28;20094;-81
2024/02/09 07:17:01;;;;;;;4.60;1.90;;;9.90;99.90;;;9.73;96.51;97478.03;5020479;28;20107;-81
2024/02/09 07:19:29;;;;;;;5.00;1.90;;;9.90;99.90;;;9.73;96.73;97485.22;5042652;28;20049;-81
2024/02/09 07:21:56;;;;;;;4.70;1.67;;;9.90;99.90;;;9.73;96.74;97483.34;5037155;28;20121;-81
2024/02/09 07:24:25;;;;;;;3.67;1.70;;;9.90;99.90;;;9.75;96.72;97491.84;5019875;28;20065;-81
2024/02/09 07:26:54;;;;;;;7.18;2.10;;;9.90;99.90;;;9.78;96.77;97485.97;5003499;28;20045;-81
2024/02/09 07:29:22;;;;;;;4.25;2.10;;;9.90;99.90;;;9.82;96.98;97490.72;5019663;28;20041;-81
2024/02/09 07:31:50;;;;;;;5.90;2.00;;;9.90;99.90;;;9.80;97.17;97486.47;5037445;28;20516;-81
2024/02/09 07:34:18;;;;;;;6.20;2.00;;;9.90;99.90;;;9.80;97.22;97483.81;5052886;28;20037;-81
2024/02/09 07:36:46;;;;;;;7.35;2.08;;;9.90;99.90;;;9.81;97.06;97476.63;5019400;28;20068;-81
2024/02/09 07:39:14;;;;;;;6.95;2.10;;;9.90;99.90;;;9.82;96.34;97494.19;5020499;28;20041;-81
2024/02/09 07:41:41;;;;;;;6.97;2.20;;;10.00;99.90;;;9.84;96.65;97494.69;5003357;28;20069;-81
2024/02/09 07:44:10;;;;;;;7.63;2.10;;;10.00;99.90;;;9.88;96.70;97490.41;4988794;28;20469;-81
2024/02/09 07:46:38;;;;;;;5.57;2.10;;;10.00;99.90;;;9.88;96.68;97495.72;5004994;28;20037;-81
2024/02/09 07:49:05;;;;;;;6.13;2.25;;;10.10;99.90;;;9.89;96.84;97497.31;5025157;28;20042;-81
2024/02/09 07:51:33;;;;;;;8.35;2.35;;;10.00;99.90;;;9.89;96.69;97497.31;5017219;28;20044;-82
2024/02/09 07:54:00;;;;;;;11.20;2.53;;;10.00;99.90;;;9.91;97.06;97497.06;5037950;28;20077;-83
2024/02/09 07:56:27;;;;;;;7.30;2.80;;;10.10;99.90;;;9.91;97.11;97497.84;5001621;28;20042;-81
2024/02/09 07:58:55;;;;;;;5.30;2.05;;;10.10;99.90;;;9.91;97.32;97492.50;4982989;28;20552;-81
2024/02/09 08:01:24;;;;;;;6.32;2.55;;;10.10;99.90;;;9.93;97.51;97498.34;5015938;28;20056;-81
2024/02/09 08:03:53;;;;;;;9.73;2.58;;;10.10;99.90;;;9.92;97.74;97499.41;5000546;28;20042;-81
2024/02/09 08:06:22;;;;;;;10.57;2.53;;;10.10;99.90;;;9.90;98.06;97504.22;4999323;28;20569;-81
2024/02/09 08:08:52;;;;;;;8.38;2.42;;;10.10;99.90;;;9.92;98.38;97502.09;5020861;28;20041;-80
2024/02/09 08:11:20;;;;;;;6.75;2.80;;;10.10;99.90;;;9.95;98.48;97503.38;5021357;28;20061;-81
2024/02/09 08:13:50;;;;;;;7.35;3.22;;;10.20;99.90;;;9.95;98.71;97500.72;5036496;28;20045;-80
2024/02/09 08:16:18;;;;;;;6.40;3.00;;;10.10;99.90;;;9.95;99.06;97506.84;5036658;28;20104;-80
2024/02/09 08:18:47;;;;;;;11.23;3.05;;;10.10;99.90;;;9.97;99.01;97506.56;5018679;28;20493;-80
2024/02/09 08:21:14;;;;;;;9.73;2.80;;;10.10;99.90;;;9.96;99.25;97507.66;5018441;28;20081;-80
2024/02/09 08:23:41;;;;;;;10.60;3.70;;;10.10;99.90;;;9.96;99.33;97503.13;5043707;28;20069;-81
2024/02/09 08:26:10;;;;;;;9.02;3.47;;;10.10;99.90;;;9.96;99.73;97500.47;5017901;28;20493;-80
2024/02/09 08:28:43;;;;;;;11.02;3.30;;;10.10;99.90;;;9.96;99.92;97505.78;5018266;28;20088;-80
2024/02/09 08:31:13;;;;;;;9.02;3.35;;;10.10;99.90;;;9.95;100.00;97496.19;5035799;28;20045;-80
2024/02/09 08:33:41;;;;;;;9.27;4.13;;;10.10;99.90;;;9.97;100.00;97509.22;5036021;28;20045;-80
2024/02/09 08:36:11;;;;;;;7.78;3.40;;;10.20;99.90;;;10.01;100.00;97520.91;5034293;28;20500;-80
2024/02/09 08:38:38;;;;;;;12.48;3.53;;;10.20;99.90;;;10.02;100.00;97509.19;5035966;28;20051;-80
2024/02/09 08:41:07;;;;;;;11.23;3.60;;;10.20;99.90;;;10.00;100.00;97519.31;5035384;28;20416;-80
2024/02/09 08:43:34;;;;;;;9.68;3.45;;;10.20;99.90;;;10.00;100.00;97519.31;5017749;28;20048;-81
2024/02/09 08:46:03;;;;;;;8.63;3.20;;;10.20;99.90;;;10.02;100.00;97514.50;5035602;28;20041;-81
2024/02/09 08:48:30;;;;;;;12.93;3.90;;;10.20;99.90;;;10.02;100.00;97504.66;5017789;28;20425;-81
2024/02/09 08:50:58;;;;;;;10.85;3.50;;;10.20;99.90;;;10.03;100.00;97500.91;5031901;28;20049;-82
2024/02/09 08:53:38;;;;;;;10.48;3.72;;;10.30;99.90;;;10.04;100.00;97507.03;5016334;28;20107;-80
2024/02/09 08:56:09;;;;;;;6.57;3.13;;;10.20;99.90;;;10.05;100.00;97505.94;5018289;28;20559;-81
2024/02/09 08:58:37;;;;;;;10.80;3.80;;;10.20;99.90;;;10.06;100.00;97507.56;5035772;28;20496;-82
2024/02/09 09:01:05;;;;;;;11.90;3.50;;;10.20;99.90;;;10.08;100.00;97502.72;5035392;28;20084;-81
2024/02/09 09:03:33;;;;;;;10.90;3.75;;;10.30;99.90;;;10.10;100.00;97500.56;5034309;28;20631;-82
2024/02/09 09:06:02;;;;;;;10.32;3.50;;;10.30;99.90;;;10.12;100.00;97500.31;5017773;28;20119;-81
2024/02/09 09:08:31;;;;;;;10.93;3.22;;;10.30;99.90;;;10.11;100.00;97486.19;5035618;28;20092;-81
2024/02/09 09:11:01;;;;;;;11.63;3.65;;;10.30;99.90;;;10.15;99.55;97497.88;5017335;28;20393;-81
2024/02/09 09:13:28;;;;;;;14.50;3.53;;;10.40;99.90;;;10.17;99.47;97487.72;5034061;28;20033;-81
2024/02/09 09:15:56;;;;;;;6.97;3.40;;;10.40;99.90;;;10.19;99.36;97487.44;4999260;28;20049;-86
2024/02/09 09:18:23;;;;;;;8.45;3.33;;;10.40;99.90;;;10.19;99.63;97490.91;5016144;28;20072;-86
2024/02/09 09:20:52;;;;;;;9.55;3.60;;;10.40;99.90;;;10.22;99.76;97481.56;5015145;28;20056;-82
2024/02/09 09:23:20;;;;;;;11.48;3.35;;;10.40;99.90;;;10.24;99.74;97485.53;5033579;28;20049;-84
2024/02/09 09:25:49;;;;;;;10.10;3.10;;;10.50;99.90;;;10.26;99.68;97480.75;5035095;28;20129;-83
2024/02/09 09:28:17;;;;;;;8.35;3.60;;;10.50;99.90;;;10.28;99.65;97489.22;5017495;28;20053;-83
2024/02/09 09:30:46;;;;;;;11.45;3.17;;;10.50;99.90;;;10.31;99.68;97494.00;5035918;28;20069;-83
2024/02/09 09:33:14;;;;;;;8.55;3.20;;;10.50;99.90;;;10.34;99.99;97492.63;5035473;28;20120;-83
2024/02/09 09:44:47;;;;;;;9.40;3.40;;;10.60;99.90;;;10.41;99.76;97492.31;5018818;28;20141;-82
2024/02/09 09:47:15;;;;;;;7.07;2.90;;;10.60;99.90;;;10.40;99.58;97502.19;5065803;28;20440;-82
2024/02/09 09:49:45;;;;;;;8.60;3.38;;;10.60;99.90;;;10.42;99.35;97507.22;5054136;28;20056;-81
2024/02/09 09:52:28;;;;;;;14.52;4.07;;;10.70;99.90;;;10.45;99.28;97498.66;4997783;28;20049;-83
2024/02/09 09:54:59;;;;;;;8.02;2.83;;;10.70;99.90;;;10.46;99.23;97497.59;4974266;28;20045;-82
2024/02/09 09:57:27;;;;;;;7.45;3.70;;;10.70;99.90;;;10.51;98.81;97494.88;5017434;28;20064;-82
2024/02/09 10:00:23;;;;;;;8.68;3.17;;;10.80;99.90;;;10.54;98.38;97502.28;5036168;28;20034;-83
2024/02/09 10:02:53;;;;;;;14.48;3.80;;;10.80;99.90;;;10.54;98.14;97502.28;5018020;28;20048;-81
2024/02/09 10:05:21;;;;;;;7.00;3.17;;;10.80;99.90;;;10.53;98.40;97501.47;5013303;28;20046;-81
2024/02/09 10:07:49;;;;;;;8.80;2.92;;;10.80;99.90;;;10.51;97.65;97500.19;5017838;28;20053;-81
2024/02/09 10:10:19;;;;;;;8.90;3.30;;;10.80;99.90;;;10.57;97.51;97501.72;5017401;28;20041;-82
2024/02/09 10:12:48;;;;;;;8.35;3.15;;;10.80;99.90;;;10.62;96.82;97503.53;5001341;28;20103;-82
2024/02/09 10:15:18;;;;;;;15.98;4.18;;;10.90;99.90;;;10.67;96.95;97504.25;5049700;28;20597;-81
2024/02/09 10:17:46;;;;;;;11.43;3.85;;;11.00;99.90;;;10.72;97.31;97506.88;5033558;28;20042;-81
2024/02/09 10:20:14;;;;;;;10.13;3.80;;;11.00;99.90;;;10.77;97.99;97498.81;5031051;28;20080;-81
2024/02/09 10:22:42;;;;;;;13.27;4.72;;;11.00;99.90;;;10.80;97.86;97495.56;5034676;28;20137;-82
2024/02/09 10:25:12;;;;;;;10.90;4.10;;;11.10;99.90;;;10.85;97.13;97502.72;5017029;28;20065;-82
2024/02/09 10:27:42;;;;;;;12.15;4.93;;;11.10;99.90;;;10.89;97.04;97501.06;4985389;28;20049;-82
2024/02/09 10:30:11;;;;;;;10.88;4.00;;;11.20;99.90;;;10.92;96.52;97497.03;5015034;28;20046;-82
2024/02/09 10:32:41;;;;;;;7.88;3.67;;;11.20;99.90;;;10.97;96.42;97496.97;4999835;28;20073;-81
2024/02/09 10:35:08;;;;;;;9.57;3.90;;;11.20;99.90;;;10.98;96.12;97507.38;5001920;28;20049;-81
2024/02/09 10:37:37;;;;;;;10.30;5.20;;;11.30;99.90;;;11.01;96.02;97505.97;5018187;28;20049;-81
2024/02/09 10:40:06;;;;;;;10.43;4.78;;;11.30;99.90;;;11.03;95.68;97503.84;5020424;28;20527;-82
2024/02/09 10:42:44;;;;;;;9.75;3.97;;;11.30;99.90;;;11.06;94.72;97514.69;5037103;28;20510;-81
2024/02/09 10:45:13;;;;;;;10.82;3.80;;;11.40;99.90;;;11.11;94.38;97516.50;5038093;28;20055;-82
2024/02/09 10:47:43;;;;;;;10.60;4.10;;;11.40;99.90;;;11.12;93.77;97507.41;5037599;28;20041;-81
2024/02/09 10:50:12;;;;;;;9.52;3.80;;;11.50;99.90;;;11.16;93.98;97510.31;5037602;28;20107;-81
2024/02/09 10:52:48;;;;;;;8.57;3.42;;;11.50;99.90;;;11.18;94.40;97513.50;5038707;28;20129;-81
2024/02/09 10:55:21;;;;;;;9.55;3.80;;;11.50;99.90;;;11.23;94.41;97522.22;5038225;28;20045;-81
2024/02/09 10:57:50;;;;;;;6.80;2.60;;;11.60;99.90;;;11.28;95.51;97522.16;5039034;28;20038;-81
2024/02/09 11:00:18;;;;;;;9.65;3.03;;;11.60;99.90;;;11.35;95.78;97511.13;5040209;28;20117;-81
2024/02/09 11:02:48;;;;;;;12.95;2.80;;;11.70;99.90;;;11.39;95.26;97506.00;5021120;28;20120;-81
2024/02/09 11:05:15;;;;;;;8.70;3.08;;;11.70;99.90;;;11.41;94.69;97509.94;5039083;28;20520;-81
2024/02/09 11:07:46;;;;;;;9.55;3.10;;;11.80;99.90;;;11.42;94.96;97508.88;5005247;28;20095;-81
2024/02/09 11:10:15;;;;;;;9.73;3.20;;;11.80;99.90;;;11.45;94.72;97515.50;5021538;28;20069;-81
2024/02/09 11:12:44;;;;;;;9.05;3.08;;;11.80;99.90;;;11.46;94.86;97525.09;5040275;28;20127;-81
2024/02/09 11:15:14;;;;;;;10.57;2.75;;;11.80;99.90;;;11.45;94.41;97510.97;5021721;28;20056;-82
2024/02/09 11:17:46;;;;;;;7.63;2.75;;;11.80;99.90;;;11.45;94.37;97510.97;5021972;28;20050;-82
2024/02/09 11:20:15;;;;;;;9.15;3.20;;;11.80;99.90;;;11.43;94.33;97512.34;5021253;28;20045;-82
2024/02/09 11:22:45;;;;;;;8.05;3.08;;;11.80;99.90;;;11.45;94.52;97518.19;5021105;28;20065;-82
2024/02/09 11:25:16;;;;;;;8.88;2.92;;;11.80;99.90;;;11.46;94.56;97517.88;5021363;28;20049;-82
2024/02/09 11:27:48;;;;;;;7.72;3.03;;;11.80;99.90;;;11.48;94.67;97520.28;5025195;28;20050;-82
2024/02/09 11:30:17;;;;;;;8.20;3.13;;;11.80;99.90;;;11.48;95.05;97517.59;4985873;28;20055;-82
2024/02/09 11:32:46;;;;;;;6.13;3.03;;;11.80;99.90;;;11.48;95.33;97512.28;5001515;28;20073;-81
2024/02/09 11:35:16;;;;;;;7.97;3.50;;;11.80;99.90;;;11.46;95.01;97509.88;5026261;28;20037;-81
2024/02/09 11:37:44;;;;;;;8.98;3.65;;;11.80;99.90;;;11.48;94.53;97509.59;5005271;28;20052;-81
2024/02/09 11:40:14;;;;;;;7.93;3.17;;;11.80;99.90;;;11.48;93.57;97510.41;5005639;28;20120;-81
2024/02/09 11:42:41;;;;;;;8.65;3.53;;;11.80;99.90;;;11.53;93.79;97509.53;5017261;28;20046;-81
2024/02/09 11:45:10;;;;;;;10.60;3.08;;;11.90;99.90;;;11.56;94.27;97508.94;4967651;28;20149;-81
2024/02/09 11:47:39;;;;;;;11.20;3.33;;;11.90;99.90;;;11.53;92.65;97512.19;4999987;28;20073;-81
2024/02/09 11:50:21;;;;;;;8.65;3.42;;;12.00;99.90;;;11.58;92.26;97515.56;5017230;28;20050;-82
2024/02/09 11:52:49;;;;;;;10.20;3.25;;;11.90;99.90;;;11.60;92.86;97509.94;4999932;28;20410;-82
2024/02/09 12:00:38;;;;;;;10.57;3.13;;;11.90;99.90;;;11.59;92.58;97513.69;5017530;28;20069;-81
2024/02/09 12:03:06;;;;;;;10.10;3.00;;;11.90;99.90;;;11.61;92.37;97516.84;5002027;28;20457;-81
2024/02/09 12:05:35;;;;;;;6.95;2.80;;;11.90;99.90;;;11.59;91.61;97519.03;5001008;28;20100;-82
2024/02/09 12:08:03;;;;;;;7.45;2.90;;;11.90;99.90;;;11.61;91.96;97508.84;5018376;28;20061;-81
2024/02/09 12:10:31;;;;;;;8.00;3.17;;;11.90;99.90;;;11.60;92.22;97518.72;5019137;28;20053;-81
2024/02/09 12:12:58;;;;;;;8.00;2.60;;;11.90;99.90;;;11.59;91.97;97511.03;5020547;28;20041;-81
2024/02/09 12:15:26;;;;;;;9.20;2.80;;;11.90;99.90;;;11.58;91.03;97520.13;5038389;28;20095;-81
2024/02/09 12:17:58;;;;;;;9.77;3.13;;;11.90;99.90;;;11.57;90.09;97513.19;5020101;28;20037;-81
2024/02/09 12:20:27;;;;;;;9.85;3.20;;;11.90;99.90;;;11.62;90.59;97504.31;5020139;28;20041;-81
2024/02/09 12:22:57;;;;;;;5.85;2.88;;;11.90;99.90;;;11.64;90.85;97510.94;5020946;28;20045;-82
2024/02/09 12:25:26;;;;;;;12.00;3.40;;;11.90;99.90;;;11.65;89.97;97519.75;5019383;28;20051;-84
2024/02/09 12:27:58;;;;;;;7.88;2.72;;;11.90;99.90;;;11.66;90.62;97513.31;5003250;28;20053;-82
2024/02/09 12:30:28;;;;;;;9.40;3.30;;;11.90;99.90;;;11.69;89.55;97512.75;5019478;28;20045;-81
2024/02/09 12:32:57;;;;;;;7.18;2.90;;;12.00;99.90;;;11.71;90.37;97514.06;5038518;28;20061;-82